Time;durP1;ratioP1;P1;durP2;ratioP2;P2;SDS_P1;SDS_P2;PMS_P1;PMS_P2;Temp;Humidity;BMP_temperature;BMP_pressure;BME280_temperature;BME280_humidity;BME280_pressure;Samples;Min_cycle;Max_cycle;Signal;HPM_P1;HPM_P2
2022/01/05 00:00:34;;;;;;;6.97;1.70;;;2.00;99.90;;;;;;5115881;28;20452;-80
2022/01/05 00:03:00;;;;;;;4.93;1.63;;;2.00;99.90;;;;;;5097441;28;20700;-81
2022/01/05 00:05:26;;;;;;;10.83;0.97;;;2.00;99.90;;;;;;5115795;28;20192;-81
2022/01/05 00:07:51;;;;;;;3.33;1.80;;;2.00;99.90;;;;;;5115703;28;20168;-80
2022/01/05 00:10:17;;;;;;;5.77;1.90;;;2.00;99.90;;;;;;5097368;28;20183;-81
2022/01/05 00:12:42;;;;;;;5.60;1.13;;;2.00;99.90;;;;;;5115329;28;20176;-81
2022/01/05 00:15:09;;;;;;;2.83;0.50;;;2.00;99.90;;;;;;5115627;28;20179;-80
2022/01/05 00:17:37;;;;;;;6.57;1.13;;;2.00;99.90;;;;;;5115306;28;20238;-80
2022/01/05 00:20:06;;;;;;;5.37;1.20;;;2.00;99.90;;;;;;5115383;28;20410;-80
2022/01/05 00:22:32;;;;;;;5.93;0.50;;;2.00;99.90;;;;;;5096963;28;20425;-81
2022/01/05 00:24:57;;;;;;;7.93;1.20;;;2.00;99.90;;;;;;5114732;28;20984;-80
2022/01/05 00:27:23;;;;;;;2.70;0.87;;;2.00;99.90;;;;;;5114567;28;20183;-80
2022/01/05 00:29:48;;;;;;;4.07;0.97;;;2.00;99.90;;;;;;5115171;28;20172;-79
2022/01/05 00:32:14;;;;;;;6.50;1.40;;;2.00;99.90;;;;;;5115215;28;20262;-81
2022/01/05 00:34:40;;;;;;;6.13;1.20;;;2.00;99.90;;;;;;5115111;28;20566;-80
2022/01/05 00:37:05;;;;;;;6.13;0.97;;;2.00;99.90;;;;;;5114933;28;20264;-80
2022/01/05 00:39:31;;;;;;;6.57;0.97;;;2.00;99.90;;;;;;5115036;28;20547;-81
2022/01/05 00:41:57;;;;;;;2.00;0.90;;;1.90;99.90;;;;;;5114671;28;20168;-80
2022/01/05 00:44:25;;;;;;;5.50;1.50;;;1.90;99.90;;;;;;5114792;28;20413;-80
2022/01/05 00:46:50;;;;;;;8.37;1.40;;;1.90;99.90;;;;;;5096639;28;20168;-80
2022/01/05 00:49:17;;;;;;;4.10;0.57;;;1.90;99.90;;;;;;5096636;28;20405;-80
2022/01/05 00:51:43;;;;;;;4.40;1.40;;;1.90;99.90;;;;;;5114879;28;20202;-79
2022/01/05 00:54:09;;;;;;;3.10;1.07;;;1.90;99.90;;;;;;5114920;28;20723;-80
2022/01/05 00:56:34;;;;;;;11.33;0.57;;;1.90;99.90;;;;;;5114206;28;20194;-81
2022/01/05 00:59:00;;;;;;;6.33;1.97;;;1.80;99.90;;;;;;5114681;28;20659;-81
2022/01/05 01:01:28;;;;;;;3.37;1.30;;;1.80;99.90;;;;;;5114688;28;20681;-81
2022/01/05 01:03:54;;;;;;;5.43;1.80;;;1.80;99.90;;;;;;5114703;28;20560;-81
2022/01/05 01:06:20;;;;;;;2.50;0.83;;;1.90;99.90;;;;;;5114630;28;20401;-80
2022/01/05 01:08:45;;;;;;;5.60;1.00;;;1.90;99.90;;;;;;5114604;28;20172;-81
2022/01/05 01:11:11;;;;;;;6.60;1.13;;;1.80;99.90;;;;;;5114129;28;20163;-81
2022/01/05 01:13:36;;;;;;;5.60;0.77;;;1.80;99.90;;;;;;5114420;28;20627;-81
2022/01/05 01:16:02;;;;;;;4.00;0.80;;;1.80;99.90;;;;;;5114358;28;20167;-81
2022/01/05 01:18:33;;;;;;;3.73;1.70;;;1.80;99.90;;;;;;5114398;28;20176;-81
2022/01/05 01:20:58;;;;;;;3.10;1.00;;;1.80;99.90;;;;;;5114402;28;20217;-80
2022/01/05 01:23:24;;;;;;;3.63;0.97;;;1.80;99.90;;;;;;5114165;28;20417;-81
2022/01/05 01:25:50;;;;;;;4.83;2.93;;;1.80;99.90;;;;;;5114192;28;20160;-81
2022/01/05 01:28:16;;;;;;;3.80;1.27;;;1.80;99.90;;;;;;5113715;28;20631;-81
2022/01/05 01:30:42;;;;;;;5.97;1.63;;;1.70;99.90;;;;;;5113920;28;20455;-81
2022/01/05 01:33:28;;;;;;;2.93;0.90;;;1.80;99.90;;;;;;5114123;28;20417;-81
2022/01/05 01:35:53;;;;;;;1.80;0.70;;;1.80;99.90;;;;;;5095121;28;20422;-81
2022/01/05 01:38:19;;;;;;;5.67;1.50;;;1.70;99.90;;;;;;5095120;28;20464;-81
2022/01/05 01:40:44;;;;;;;5.10;1.23;;;1.70;99.90;;;;;;5113927;28;20167;-81
2022/01/05 01:43:10;;;;;;;2.80;0.87;;;1.70;99.90;;;;;;5113503;28;20231;-79
2022/01/05 01:45:35;;;;;;;4.83;1.03;;;1.60;99.90;;;;;;5113926;28;20221;-81
2022/01/05 01:48:01;;;;;;;4.27;0.90;;;1.70;99.90;;;;;;5113672;28;20205;-80
2022/01/05 01:50:26;;;;;;;5.60;1.73;;;1.70;99.90;;;;;;5095546;28;20186;-81
2022/01/05 01:52:52;;;;;;;4.53;1.50;;;1.80;99.90;;;;;;5113781;28;20231;-81
2022/01/05 01:55:21;;;;;;;3.80;0.63;;;1.80;99.90;;;;;;5113837;28;20183;-81
2022/01/05 01:57:46;;;;;;;3.10;1.40;;;1.80;99.90;;;;;;5113245;28;20202;-81
2022/01/05 02:00:13;;;;;;;2.83;0.60;;;1.80;99.90;;;;;;5113677;28;20419;-81
2022/01/05 02:02:39;;;;;;;9.20;1.80;;;1.80;99.90;;;;;;5113569;28;20771;-81
2022/01/05 02:05:06;;;;;;;6.33;1.50;;;1.90;99.90;;;;;;5113468;28;20405;-80
2022/01/05 02:07:32;;;;;;;6.17;1.83;;;1.80;99.90;;;;;;5113349;28;20423;-81
2022/01/05 02:09:57;;;;;;;7.13;1.70;;;1.80;99.90;;;;;;5113516;28;20909;-81
2022/01/05 02:12:26;;;;;;;8.80;1.57;;;1.80;99.90;;;;;;5113150;28;20181;-81
2022/01/05 02:14:55;;;;;;;7.00;1.90;;;1.80;99.90;;;;;;5113478;28;20263;-81
2022/01/05 02:17:28;;;;;;;4.27;1.13;;;1.70;99.90;;;;;;5095093;28;20556;-80
2022/01/05 02:19:54;;;;;;;11.63;1.50;;;1.70;99.90;;;;;;5113357;28;20409;-81
2022/01/05 02:22:20;;;;;;;4.50;1.47;;;1.80;99.90;;;;;;5113420;28;20435;-81
2022/01/05 02:24:47;;;;;;;4.43;1.77;;;1.80;99.90;;;;;;5113385;28;20172;-80
2022/01/05 02:27:14;;;;;;;3.17;1.03;;;1.70;99.90;;;;;;5112957;28;20171;-80
2022/01/05 02:29:39;;;;;;;4.60;1.60;;;1.60;99.90;;;;;;5113377;28;20973;-81
2022/01/05 02:32:06;;;;;;;5.50;1.73;;;1.60;99.90;;;;;;5112844;28;20565;-81
2022/01/05 02:34:31;;;;;;;8.27;1.50;;;1.60;99.90;;;;;;5112665;28;20638;-81
2022/01/05 02:36:57;;;;;;;3.77;1.20;;;1.60;99.90;;;;;;5112596;28;20476;-79
2022/01/05 02:39:22;;;;;;;6.53;1.80;;;1.60;99.90;;;;;;5113060;28;20171;-79
2022/01/05 02:41:52;;;;;;;6.63;1.20;;;1.60;99.90;;;;;;5112749;28;20553;-81
2022/01/05 02:44:18;;;;;;;6.27;1.50;;;1.70;99.90;;;;;;5113191;28;20155;-81
2022/01/05 02:46:44;;;;;;;7.10;1.20;;;1.70;99.90;;;;;;5113282;28;20466;-81
2022/01/05 02:49:09;;;;;;;3.80;1.20;;;1.70;99.90;;;;;;5096219;28;20893;-80
2022/01/05 02:51:35;;;;;;;5.03;1.13;;;1.70;99.90;;;;;;5117060;28;20177;-80
2022/01/05 02:54:03;;;;;;;6.33;1.13;;;1.70;99.90;;;;;;5098870;28;20517;-78
2022/01/05 02:56:29;;;;;;;4.73;0.83;;;1.60;99.90;;;;;;5098425;28;20679;-80
2022/01/05 02:58:54;;;;;;;3.17;0.97;;;1.80;99.90;;;;;;5098866;28;20470;-81
2022/01/05 03:01:20;;;;;;;4.60;0.97;;;1.70;99.90;;;;;;5116873;28;20180;-80
2022/01/05 03:03:45;;;;;;;11.33;1.17;;;1.70;99.90;;;;;;5116549;28;20177;-78
2022/01/05 03:06:11;;;;;;;4.73;0.90;;;1.70;99.90;;;;;;5116634;28;20167;-80
2022/01/05 03:08:36;;;;;;;5.87;1.60;;;1.70;99.90;;;;;;5116830;28;20164;-80
2022/01/05 03:11:02;;;;;;;4.93;0.83;;;1.60;99.90;;;;;;5116409;28;20645;-80
2022/01/05 03:13:27;;;;;;;4.57;1.43;;;1.60;99.90;;;;;;5116778;28;20174;-79
2022/01/05 03:15:54;;;;;;;3.57;0.90;;;1.70;99.90;;;;;;5098404;28;20526;-81
2022/01/05 03:18:20;;;;;;;5.50;0.80;;;1.70;99.90;;;;;;5116662;28;20168;-79
2022/01/05 03:20:47;;;;;;;12.10;1.40;;;1.70;99.90;;;;;;5116758;28;20411;-81
2022/01/05 03:23:13;;;;;;;3.27;0.77;;;1.70;99.90;;;;;;5116675;28;20174;-81
2022/01/05 03:25:40;;;;;;;4.23;1.07;;;1.70;99.90;;;;;;5116519;28;20496;-79
2022/01/05 03:28:05;;;;;;;5.37;1.13;;;1.70;99.90;;;;;;5116449;28;20213;-78
2022/01/05 03:30:31;;;;;;;3.33;1.17;;;1.70;99.90;;;;;;5116473;28;20417;-79
2022/01/05 03:35:28;;;;;;;3.83;1.10;;;1.70;99.90;;;;;;5116290;28;20175;-80
2022/01/05 03:37:54;;;;;;;7.53;0.67;;;1.80;99.90;;;;;;5115990;28;20850;-79
2022/01/05 03:40:19;;;;;;;3.87;1.33;;;1.80;99.90;;;;;;5116251;28;20424;-78
2022/01/05 03:42:45;;;;;;;5.43;1.33;;;1.70;99.90;;;;;;5115901;28;20211;-81
2022/01/05 03:45:10;;;;;;;12.53;2.63;;;1.70;99.90;;;;;;5116238;28;20183;-78
2022/01/05 03:47:36;;;;;;;6.37;1.20;;;1.80;99.90;;;;;;5116158;28;20228;-79
2022/01/05 03:50:04;;;;;;;8.63;1.90;;;1.80;99.90;;;;;;5116197;28;20169;-79
2022/01/05 03:52:31;;;;;;;11.23;2.70;;;1.70;99.90;;;;;;5116011;28;20186;-82
2022/01/05 03:54:56;;;;;;;9.23;1.47;;;1.70;99.90;;;;;;5115936;28;20418;-81
2022/01/05 03:57:22;;;;;;;12.70;1.33;;;1.80;99.90;;;;;;5114682;28;20551;-80
2022/01/05 03:59:47;;;;;;;5.43;0.57;;;1.80;99.90;;;;;;5114265;28;20271;-80
2022/01/05 04:02:13;;;;;;;6.57;1.07;;;1.70;99.90;;;;;;5114473;28;20510;-81
2022/01/05 04:04:38;;;;;;;6.73;0.80;;;1.70;99.90;;;;;;5114528;28;20176;-81
2022/01/05 04:07:04;;;;;;;4.87;1.07;;;1.70;99.90;;;;;;5114513;28;20538;-79
2022/01/05 04:09:30;;;;;;;5.50;1.07;;;1.80;99.90;;;;;;5114214;28;20274;-82
2022/01/05 04:11:55;;;;;;;6.17;1.10;;;1.80;99.90;;;;;;5114026;28;20628;-82
2022/01/05 04:14:21;;;;;;;3.83;1.13;;;1.80;99.90;;;;;;5114259;28;20163;-81
2022/01/05 04:16:46;;;;;;;6.80;1.57;;;1.80;99.90;;;;;;5114233;28;20457;-82
2022/01/05 04:19:12;;;;;;;4.30;1.20;;;1.90;99.90;;;;;;5096110;28;20237;-82
2022/01/05 04:21:37;;;;;;;5.37;1.63;;;1.80;99.90;;;;;;5115264;28;20222;-82
2022/01/05 04:24:03;;;;;;;2.70;1.10;;;1.90;99.90;;;;;;5114940;28;20171;-81
2022/01/05 04:26:28;;;;;;;6.60;2.20;;;1.80;99.90;;;;;;5114033;28;20176;-81
2022/01/05 04:28:54;;;;;;;12.80;0.90;;;1.80;99.90;;;;;;5113781;28;20172;-79
2022/01/05 04:31:19;;;;;;;4.33;0.80;;;1.80;99.90;;;;;;5114098;28;20168;-82
2022/01/05 04:33:45;;;;;;;6.43;1.00;;;1.90;99.90;;;;;;5114700;28;20578;-81
2022/01/05 04:36:10;;;;;;;5.07;1.00;;;1.80;99.90;;;;;;5115120;28;20160;-82
2022/01/05 04:38:36;;;;;;;5.37;1.50;;;1.90;99.90;;;;;;5096791;28;20219;-79
2022/01/05 04:41:05;;;;;;;4.30;1.20;;;2.00;99.90;;;;;;5114740;28;20616;-81
2022/01/05 04:43:30;;;;;;;4.00;1.50;;;2.10;99.90;;;;;;5115131;28;20251;-81
2022/01/05 04:45:56;;;;;;;6.23;1.20;;;2.20;99.90;;;;;;5115058;28;20494;-82
2022/01/05 04:48:22;;;;;;;4.83;1.60;;;2.20;99.90;;;;;;5114948;28;20336;-82
2022/01/05 04:50:48;;;;;;;7.87;0.83;;;2.20;99.90;;;;;;5114990;28;20572;-78
2022/01/05 04:53:13;;;;;;;1.90;0.50;;;2.40;99.90;;;;;;5114931;28;20413;-78
2022/01/05 04:55:40;;;;;;;6.13;1.73;;;2.40;99.90;;;;;;5114505;28;20214;-82
2022/01/05 04:58:06;;;;;;;3.67;1.23;;;2.40;99.90;;;;;;5114780;28;20214;-81
2022/01/05 05:00:31;;;;;;;5.60;0.70;;;2.40;99.90;;;;;;5114838;28;20416;-81
2022/01/05 05:02:57;;;;;;;6.17;1.43;;;2.50;99.90;;;;;;5114829;28;20638;-81
2022/01/05 05:05:22;;;;;;;20.50;1.20;;;2.50;99.90;;;;;;5114713;28;20175;-82
2022/01/05 05:07:48;;;;;;;4.63;0.80;;;2.40;99.90;;;;;;5096168;28;20267;-81
2022/01/05 05:10:13;;;;;;;4.13;0.67;;;2.40;99.90;;;;;;5096422;28;20277;-82
2022/01/05 05:12:39;;;;;;;6.60;1.00;;;2.50;99.90;;;;;;5113723;28;20176;-81
2022/01/05 05:15:05;;;;;;;8.23;1.27;;;2.50;99.90;;;;;;5096245;28;20179;-82
2022/01/05 05:17:30;;;;;;;5.30;1.07;;;2.60;99.90;;;;;;5114344;28;20250;-81
2022/01/05 05:19:56;;;;;;;2.97;0.57;;;2.60;99.90;;;;;;5114346;28;20605;-82
2022/01/05 05:22:22;;;;;;;6.53;1.87;;;2.60;99.90;;;;;;5114112;28;20180;-81
2022/01/05 05:24:48;;;;;;;2.87;1.33;;;2.70;99.90;;;;;;5114094;28;20207;-83
2022/01/05 05:27:13;;;;;;;6.77;0.80;;;2.70;99.90;;;;;;5113513;28;20430;-81
2022/01/05 05:29:39;;;;;;;3.70;0.80;;;2.70;99.90;;;;;;5114012;28;20309;-82
2022/01/05 05:32:08;;;;;;;6.20;0.50;;;2.70;99.90;;;;;;5114122;28;20171;-81
2022/01/05 05:34:34;;;;;;;6.70;0.63;;;2.70;99.90;;;;;;5113982;28;20171;-82
2022/01/05 05:36:59;;;;;;;9.43;1.10;;;2.70;99.90;;;;;;5095453;28;20981;-82
2022/01/05 05:39:25;;;;;;;8.03;1.10;;;2.60;99.90;;;;;;5095672;28;20270;-82
2022/01/05 05:41:50;;;;;;;7.80;1.43;;;2.60;99.90;;;;;;5113700;28;20180;-82
2022/01/05 05:44:16;;;;;;;4.03;0.93;;;2.60;99.90;;;;;;5113885;28;20169;-82
2022/01/05 05:46:42;;;;;;;7.90;0.60;;;2.60;99.90;;;;;;5113789;28;20172;-82
2022/01/05 05:49:07;;;;;;;3.40;1.03;;;2.60;99.90;;;;;;5113820;28;20671;-82
2022/01/05 05:51:33;;;;;;;6.20;1.30;;;2.60;99.90;;;;;;5113718;28;20163;-82
2022/01/05 05:54:01;;;;;;;8.00;2.27;;;2.60;99.90;;;;;;5113498;28;20633;-82
2022/01/05 05:56:27;;;;;;;2.00;1.03;;;2.60;99.90;;;;;;5113278;28;20206;-82
2022/01/05 05:58:52;;;;;;;8.40;0.83;;;2.60;99.90;;;;;;5113580;28;21144;-81
2022/01/05 06:01:18;;;;;;;6.33;1.33;;;2.60;99.90;;;;;;5113506;28;20178;-82
2022/01/05 06:03:44;;;;;;;3.70;1.13;;;2.50;99.90;;;;;;5113611;28;20599;-81
2022/01/05 06:06:12;;;;;;;3.03;0.70;;;2.60;99.90;;;;;;5095209;28;20171;-81
2022/01/05 06:08:39;;;;;;;9.57;1.40;;;2.60;99.90;;;;;;5113528;28;20221;-82
2022/01/05 06:11:06;;;;;;;5.57;1.37;;;2.60;99.90;;;;;;5113176;28;20412;-79
2022/01/05 06:13:31;;;;;;;8.87;1.07;;;2.50;99.90;;;;;;5095119;28;20471;-79
2022/01/05 06:15:57;;;;;;;7.00;1.77;;;2.40;99.90;;;;;;5113439;28;20803;-80
2022/01/05 06:18:22;;;;;;;9.97;1.07;;;2.50;99.90;;;;;;5113362;28;20175;-82
2022/01/05 06:20:48;;;;;;;8.87;2.40;;;2.50;99.90;;;;;;5113238;28;20656;-79
2022/01/05 06:23:14;;;;;;;6.80;1.73;;;2.60;99.90;;;;;;5112474;28;20181;-79
2022/01/05 06:25:39;;;;;;;5.13;0.87;;;2.60;99.90;;;;;;5112837;28;20171;-82
2022/01/05 06:28:10;;;;;;;5.23;1.60;;;2.60;99.90;;;;;;5113098;28;20250;-81
2022/01/05 06:30:39;;;;;;;4.10;1.43;;;2.70;99.90;;;;;;5113334;28;20250;-82
2022/01/05 06:33:04;;;;;;;4.63;1.80;;;2.70;99.90;;;;;;5113155;28;20414;-80
2022/01/05 06:35:30;;;;;;;2.97;1.53;;;2.70;99.90;;;;;;5113138;28;20417;-82
2022/01/05 06:37:56;;;;;;;11.63;2.07;;;2.60;99.90;;;;;;5112867;28;20254;-79
2022/01/05 06:40:22;;;;;;;7.87;1.50;;;2.60;99.90;;;;;;5112793;28;20163;-80
2022/01/05 06:42:47;;;;;;;4.47;1.23;;;2.70;99.90;;;;;;5113039;28;20167;-81
2022/01/05 06:45:16;;;;;;;8.60;1.03;;;2.70;99.90;;;;;;5112935;28;20481;-80
2022/01/05 06:47:42;;;;;;;6.10;1.30;;;2.70;99.90;;;;;;5112915;28;20172;-81
2022/01/05 06:50:09;;;;;;;5.00;1.30;;;2.60;99.90;;;;;;5112912;28;20415;-80
2022/01/05 06:52:35;;;;;;;9.23;1.53;;;2.60;99.90;;;;;;5113007;28;20243;-79
2022/01/05 06:55:00;;;;;;;4.27;1.37;;;2.70;99.90;;;;;;5113016;28;20496;-80
2022/01/05 06:57:26;;;;;;;6.23;0.80;;;2.70;99.90;;;;;;5094333;28;20465;-81
2022/01/05 06:59:51;;;;;;;7.70;1.17;;;2.70;99.90;;;;;;5112922;28;20242;-78
2022/01/05 07:02:17;;;;;;;8.90;2.00;;;2.60;99.90;;;;;;5112960;28;20211;-79
2022/01/05 07:04:43;;;;;;;3.90;1.33;;;2.50;99.90;;;;;;5112842;28;20171;-80
2022/01/05 07:07:11;;;;;;;12.40;2.37;;;2.50;99.90;;;;;;5094714;28;20183;-80
2022/01/05 07:09:36;;;;;;;4.30;1.20;;;2.60;99.90;;;;;;5112913;28;20164;-81
2022/01/05 07:12:02;;;;;;;8.93;1.43;;;2.70;99.90;;;;;;5112580;28;20533;-81
2022/01/05 07:14:27;;;;;;;9.20;1.60;;;2.70;99.90;;;;;;5112861;28;20167;-81
2022/01/05 07:16:53;;;;;;;7.63;1.67;;;2.60;99.90;;;;;;5112727;28;20562;-81
2022/01/05 07:19:20;;;;;;;5.83;1.23;;;2.80;99.90;;;;;;5112887;28;20207;-80
2022/01/05 07:21:48;;;;;;;9.77;0.97;;;2.90;99.90;;;;;;5112831;28;20624;-81
2022/01/05 07:24:20;;;;;;;13.47;2.57;;;2.90;99.90;;;;;;5112749;28;20774;-81
2022/01/05 07:26:47;;;;;;;6.33;1.80;;;2.90;99.90;;;;;;5112486;28;20437;-80
2022/01/05 07:29:17;;;;;;;4.50;1.27;;;2.90;99.90;;;;;;5112682;28;20410;-81
2022/01/05 07:31:43;;;;;;;4.17;1.40;;;3.00;99.90;;;;;;5112741;28;20428;-81
2022/01/05 07:34:12;;;;;;;7.90;2.20;;;2.90;99.90;;;;;;5094381;28;20417;-80
2022/01/05 07:36:38;;;;;;;24.03;2.90;;;2.70;99.90;;;;;;5115957;28;20211;-81
2022/01/05 07:39:05;;;;;;;8.90;1.50;;;2.80;99.90;;;;;;5116020;28;20476;-82
2022/01/05 07:41:35;;;;;;;7.60;1.17;;;2.90;99.90;;;;;;5115733;28;20508;-81
2022/01/05 07:44:01;;;;;;;13.23;2.30;;;2.90;99.90;;;;;;5116332;28;20417;-82
2022/01/05 07:46:27;;;;;;;10.37;1.17;;;3.00;99.90;;;;;;5115891;28;20446;-82
2022/01/05 07:48:53;;;;;;;4.07;0.90;;;3.00;99.90;;;;;;5116086;28;20446;-82
2022/01/05 07:51:19;;;;;;;8.27;1.23;;;2.90;99.90;;;;;;5116068;28;20179;-81
2022/01/05 07:53:44;;;;;;;6.13;0.73;;;2.90;99.90;;;;;;5116029;28;20577;-81
2022/01/05 07:56:10;;;;;;;9.93;2.27;;;2.90;99.90;;;;;;5115525;28;20710;-81
2022/01/05 07:58:36;;;;;;;3.60;1.33;;;2.90;99.90;;;;;;5116024;28;20576;-80
2022/01/05 08:01:06;;;;;;;8.57;1.60;;;3.00;99.90;;;;;;5115908;28;20229;-80
2022/01/05 08:03:33;;;;;;;2.57;0.90;;;3.10;99.90;;;;;;5115868;28;20420;-80
2022/01/05 08:06:05;;;;;;;8.03;1.27;;;3.10;99.90;;;;;;5115734;28;20417;-80
2022/01/05 08:08:31;;;;;;;10.87;2.37;;;3.10;99.90;;;;;;5097482;28;20426;-81
2022/01/05 08:10:57;;;;;;;3.37;1.00;;;3.10;99.90;;;;;;5115458;28;20412;-80
2022/01/05 08:13:24;;;;;;;8.30;1.83;;;3.20;99.90;;;;;;5115769;28;20939;-80
2022/01/05 08:15:50;;;;;;;1.10;0.47;;;3.20;99.90;;;;;;5115564;28;20160;-80
2022/01/05 08:18:15;;;;;;;7.87;1.43;;;3.20;99.90;;;;;;5097219;28;21003;-80
2022/01/05 08:20:41;;;;;;;7.17;1.23;;;3.40;99.90;;;;;;5115851;28;20411;-81
2022/01/05 08:23:07;;;;;;;5.37;0.83;;;3.60;99.90;;;;;;5115571;28;20183;-81
2022/01/05 08:25:32;;;;;;;6.03;1.47;;;3.80;99.90;;;;;;5115077;28;20163;-80
2022/01/05 08:27:58;;;;;;;8.40;1.07;;;3.60;99.90;;;;;;5115457;28;20168;-81
2022/01/05 08:30:25;;;;;;;2.37;0.97;;;3.40;99.90;;;;;;5115416;28;20248;-81
2022/01/05 08:32:52;;;;;;;8.87;1.47;;;3.30;99.90;;;;;;5115366;28;20170;-80
2022/01/05 08:35:20;;;;;;;8.27;1.43;;;3.20;99.90;;;;;;5115196;28;20413;-79
2022/01/05 08:37:49;;;;;;;6.90;1.00;;;3.30;99.90;;;;;;5114980;28;20474;-81
2022/01/05 08:40:18;;;;;;;3.30;1.13;;;3.20;99.90;;;;;;5114956;28;20397;-81
2022/01/05 08:42:44;;;;;;;5.87;1.33;;;3.20;99.90;;;;;;5115181;28;20416;-81
2022/01/05 08:45:14;;;;;;;8.50;2.00;;;3.20;99.90;;;;;;5115074;28;20991;-81
2022/01/05 08:47:40;;;;;;;4.40;1.43;;;3.20;99.90;;;;;;5095894;28;20470;-82
2022/01/05 08:50:06;;;;;;;7.67;0.70;;;3.30;99.90;;;;;;5114924;28;20434;-81
2022/01/05 08:52:32;;;;;;;9.10;2.03;;;3.30;99.90;;;;;;5114962;28;20201;-80
2022/01/05 08:54:57;;;;;;;1.80;0.70;;;3.40;99.90;;;;;;5114556;28;20405;-79
2022/01/05 08:57:23;;;;;;;2.37;0.87;;;3.40;99.90;;;;;;5096529;28;20690;-80
2022/01/05 08:59:51;;;;;;;6.70;0.90;;;3.40;99.90;;;;;;5114884;28;20167;-80
2022/01/05 09:02:20;;;;;;;7.70;1.93;;;3.50;99.90;;;;;;5114687;28;20761;-79
2022/01/05 09:04:48;;;;;;;3.53;1.30;;;3.60;99.90;;;;;;5114687;28;20439;-80
2022/01/05 09:07:14;;;;;;;10.20;1.60;;;3.50;99.90;;;;;;5114718;28;20433;-80
2022/01/05 09:09:39;;;;;;;5.00;1.20;;;3.40;99.90;;;;;;5114630;28;20409;-79
2022/01/05 09:12:08;;;;;;;2.57;0.77;;;3.40;99.90;;;;;;5114351;28;20684;-79
2022/01/05 09:14:37;;;;;;;3.93;1.10;;;3.30;99.90;;;;;;5114463;28;20172;-81
2022/01/05 09:17:03;;;;;;;2.93;0.80;;;3.30;99.90;;;;;;5114145;28;20959;-80
2022/01/05 09:19:29;;;;;;;4.97;1.33;;;3.20;99.90;;;;;;5114249;28;20408;-80
2022/01/05 09:21:55;;;;;;;3.40;0.93;;;3.20;99.90;;;;;;5114283;28;20420;-80
2022/01/05 09:24:21;;;;;;;9.87;1.20;;;3.20;99.90;;;;;;5114300;28;20818;-80
2022/01/05 09:26:46;;;;;;;4.00;1.20;;;3.20;99.90;;;;;;5095907;28;20497;-81
2022/01/05 09:29:12;;;;;;;6.33;1.67;;;3.20;99.90;;;;;;5114276;28;20195;-79
2022/01/05 09:31:37;;;;;;;3.43;2.07;;;3.20;99.90;;;;;;5114282;28;20166;-80
2022/01/05 09:34:04;;;;;;;5.90;2.57;;;3.20;99.90;;;;;;5095874;28;20225;-80
2022/01/05 09:36:36;;;;;;;8.27;2.20;;;3.20;99.90;;;;;;5114017;28;20561;-80
2022/01/05 09:41:56;;;;;;;4.93;1.20;;;3.30;99.90;;;;;;5114048;28;20401;-80
2022/01/05 09:44:32;;;;;;;4.57;1.73;;;3.40;99.90;;;;;;5113974;28;20421;-80
2022/01/05 09:47:37;;;;;;;12.60;2.07;;;3.40;99.90;;;;;;5095742;28;20496;-80
2022/01/05 09:50:10;;;;;;;7.27;1.50;;;3.40;99.90;;;;;;5113141;28;20414;-80
2022/01/05 09:52:37;;;;;;;6.43;2.57;;;3.40;99.90;;;;;;5113147;28;20401;-80
2022/01/05 09:55:04;;;;;;;3.73;1.40;;;3.50;99.90;;;;;;5112955;28;20401;-81
2022/01/05 09:57:31;;;;;;;6.77;1.23;;;3.50;99.90;;;;;;5113463;28;20469;-80
2022/01/05 09:59:57;;;;;;;4.00;1.50;;;3.60;99.90;;;;;;5114028;28;20440;-80
2022/01/05 10:02:23;;;;;;;7.43;2.60;;;3.60;99.90;;;;;;5113763;28;20443;-81
2022/01/05 10:04:49;;;;;;;8.33;1.47;;;3.70;99.90;;;;;;5113706;28;20179;-81
2022/01/05 10:07:15;;;;;;;2.30;1.13;;;3.60;99.90;;;;;;5113704;28;20498;-80
2022/01/05 10:09:43;;;;;;;4.00;1.63;;;3.60;99.90;;;;;;5113451;28;20176;-79
2022/01/05 10:12:13;;;;;;;7.13;1.07;;;3.70;99.90;;;;;;5113879;28;20507;-81
2022/01/05 10:14:44;;;;;;;5.60;1.80;;;3.70;99.90;;;;;;5113689;28;20426;-81
2022/01/05 10:17:14;;;;;;;8.07;2.20;;;4.00;99.90;;;;;;5114137;28;20534;-82
2022/01/05 10:19:41;;;;;;;6.57;1.87;;;4.10;99.90;;;;;;5113591;28;20869;-80
2022/01/05 10:22:33;;;;;;;3.63;1.40;;;4.20;99.90;;;;;;5095376;28;20505;-81
2022/01/05 10:25:03;;;;;;;6.13;1.00;;;4.20;99.90;;;;;;5113241;28;20418;-81
2022/01/05 10:27:29;;;;;;;3.83;0.90;;;4.30;99.90;;;;;;5113546;28;20900;-81
2022/01/05 10:29:59;;;;;;;11.20;2.73;;;4.20;99.90;;;;;;5113946;28;20504;-81
2022/01/05 10:32:27;;;;;;;7.30;2.37;;;4.10;99.90;;;;;;5122992;28;20172;-81
2022/01/05 10:35:12;;;;;;;4.47;1.90;;;4.00;99.90;;;;;;5115156;28;20462;-81
2022/01/05 10:37:41;;;;;;;4.47;1.93;;;4.10;99.90;;;;;;5113112;28;20477;-82
2022/01/05 10:40:17;;;;;;;3.83;1.30;;;4.10;99.90;;;;;;5112889;28;20409;-81
2022/01/05 10:42:44;;;;;;;3.27;1.90;;;4.10;99.90;;;;;;5095125;28;20422;-80
2022/01/05 10:45:14;;;;;;;4.07;1.80;;;4.10;99.90;;;;;;5113206;28;20405;-81
2022/01/05 10:47:41;;;;;;;7.13;1.83;;;4.20;99.90;;;;;;5113278;28;20418;-81
2022/01/05 10:50:17;;;;;;;6.10;1.13;;;4.20;99.90;;;;;;5113781;28;20425;-81
2022/01/05 10:52:53;;;;;;;4.23;1.27;;;4.20;99.90;;;;;;5112987;28;20931;-80
2022/01/05 10:55:20;;;;;;;3.67;1.53;;;4.40;99.90;;;;;;5095023;28;20728;-80
2022/01/05 10:58:07;;;;;;;7.50;2.40;;;4.20;99.90;;;;;;5112716;28;20457;-81
2022/01/05 11:00:52;;;;;;;2.80;1.17;;;4.20;99.90;;;;;;5113081;28;20502;-81
2022/01/05 11:03:47;;;;;;;4.70;1.27;;;4.20;99.90;;;;;;5113027;28;20397;-80
2022/01/05 11:06:17;;;;;;;3.13;1.90;;;4.30;99.90;;;;;;5095395;28;20433;-80
2022/01/05 11:08:55;;;;;;;6.93;2.23;;;4.30;99.90;;;;;;5112972;28;20406;-82
2022/01/05 11:11:37;;;;;;;6.70;1.80;;;4.20;99.90;;;;;;5115784;28;20412;-82
2022/01/05 11:14:14;;;;;;;4.53;1.33;;;4.20;99.90;;;;;;5117070;28;20760;-82
2022/01/05 11:16:47;;;;;;;3.97;1.47;;;4.20;99.90;;;;;;5116840;28;20469;-81
2022/01/05 11:19:16;;;;;;;4.10;1.40;;;4.20;99.90;;;;;;5117201;28;20406;-81
2022/01/05 11:22:02;;;;;;;5.03;1.07;;;4.20;99.90;;;;;;5116761;28;20417;-82
2022/01/05 11:24:37;;;;;;;3.03;1.40;;;4.10;99.90;;;;;;5116447;28;20413;-81
2022/01/05 11:27:05;;;;;;;3.37;1.47;;;4.10;99.90;;;;;;5098530;28;20420;-81
2022/01/05 11:29:30;;;;;;;6.60;1.50;;;4.00;99.90;;;;;;5116645;28;20914;-81
2022/01/05 11:31:57;;;;;;;2.27;0.93;;;4.00;99.90;;;;;;5098386;28;20410;-82
2022/01/05 11:34:26;;;;;;;2.20;1.07;;;4.10;99.90;;;;;;5116264;28;20171;-82
2022/01/05 11:36:51;;;;;;;3.73;0.90;;;4.20;99.90;;;;;;5116228;28;20460;-81
2022/01/05 11:39:20;;;;;;;3.63;0.83;;;4.20;99.90;;;;;;5116265;28;20963;-81
2022/01/05 11:41:48;;;;;;;5.47;1.37;;;4.20;99.90;;;;;;5116589;28;20172;-81
2022/01/05 11:44:16;;;;;;;2.10;1.10;;;4.10;99.90;;;;;;5098072;28;20414;-81
2022/01/05 11:46:45;;;;;;;1.23;0.70;;;4.10;99.90;;;;;;5098034;28;20423;-81
2022/01/05 11:49:12;;;;;;;4.13;1.10;;;4.10;99.90;;;;;;5098404;28;20413;-81
2022/01/05 11:51:41;;;;;;;1.50;1.00;;;4.20;99.90;;;;;;5116227;28;20409;-81
2022/01/05 11:54:31;;;;;;;2.83;0.90;;;4.10;99.90;;;;;;5116030;28;20814;-85
2022/01/05 11:57:11;;;;;;;1.33;0.87;;;4.00;99.90;;;;;;5095381;28;20460;-88
2022/01/05 11:59:39;;;;;;;1.47;1.10;;;3.90;99.90;;;;;;5094797;28;20414;-89
2022/01/05 12:02:06;;;;;;;1.20;0.93;;;3.80;99.90;;;;;;5093799;28;20414;-86
2022/01/05 12:04:52;;;;;;;1.60;0.50;;;3.70;99.90;;;;;;5094842;28;20410;-87
2022/01/05 12:07:33;;;;;;;2.10;0.90;;;3.70;99.90;;;;;;5076734;28;20562;-87
2022/01/05 12:10:12;;;;;;;2.10;0.70;;;3.80;99.90;;;;;;5095016;28;20773;-85
2022/01/05 12:12:51;;;;;;;4.23;1.47;;;3.90;99.90;;;;;;5076878;28;20830;-89
2022/01/05 12:15:48;;;;;;;2.27;0.93;;;4.20;99.90;;;;;;5076643;28;20417;-87
2022/01/05 12:18:26;;;;;;;2.50;0.70;;;4.10;99.90;;;;;;5076713;28;20474;-88
2022/01/05 12:20:58;;;;;;;1.13;0.93;;;4.00;99.90;;;;;;5095079;28;20418;-85
2022/01/05 12:23:28;;;;;;;1.53;0.50;;;4.00;99.90;;;;;;5076919;28;20427;-86
2022/01/05 12:26:07;;;;;;;1.10;0.30;;;4.00;99.90;;;;;;5094337;28;20411;-85
2022/01/05 12:28:36;;;;;;;2.40;1.03;;;4.10;99.90;;;;;;5094168;28;20414;-86
2022/01/05 12:31:03;;;;;;;5.23;0.60;;;4.00;99.90;;;;;;5095940;28;20445;-85
2022/01/05 12:33:54;;;;;;;1.50;0.70;;;3.90;99.90;;;;;;5094878;28;20430;-87
2022/01/05 12:36:34;;;;;;;3.30;0.83;;;3.90;99.90;;;;;;5101659;28;20435;-88
2022/01/05 12:39:01;;;;;;;1.07;0.47;;;4.00;99.90;;;;;;5113011;28;20465;-86
2022/01/05 12:41:39;;;;;;;1.20;0.57;;;4.00;99.90;;;;;;5115262;28;21155;-87
2022/01/05 12:44:10;;;;;;;1.63;0.57;;;4.00;99.90;;;;;;5115383;28;20444;-85
2022/01/05 12:46:44;;;;;;;0.90;0.70;;;4.00;99.90;;;;;;5115401;28;20409;-86
2022/01/05 12:49:25;;;;;;;1.00;0.67;;;4.00;99.90;;;;;;5096502;28;20453;-85
2022/01/05 12:52:10;;;;;;;1.50;0.80;;;4.10;99.90;;;;;;5114560;28;20859;-90
2022/01/05 12:54:52;;;;;;;1.93;0.33;;;4.00;99.90;;;;;;5114291;28;20917;-86
2022/01/05 12:57:21;;;;;;;1.60;1.37;;;4.00;99.90;;;;;;5114687;28;20470;-85
2022/01/05 12:59:50;;;;;;;3.23;1.20;;;4.00;99.90;;;;;;5096326;28;20462;-85
2022/01/05 13:02:28;;;;;;;1.30;0.70;;;4.10;99.90;;;;;;5114331;28;20425;-85
2022/01/05 13:04:57;;;;;;;1.80;1.70;;;4.30;99.90;;;;;;5114615;28;20454;-87